Time;durP1;ratioP1;P1;durP2;ratioP2;P2;SDS_P1;SDS_P2;PMS_P1;PMS_P2;Temp;Humidity;BMP_temperature;BMP_pressure;BME280_temperature;BME280_humidity;BME280_pressure;Samples;Min_cycle;Max_cycle;Signal;HPM_P1;HPM_P2
2023/06/26 00:01:33;;;;;;;;;12.50;11.00;;;;;;;;119465;1193;25669;-63
2023/06/26 00:04:02;;;;;;;;;9.00;9.00;;;;;;;;119498;1192;25574;-63
2023/06/26 00:06:30;;;;;;;;;10.00;9.00;;;;;;;;119890;1192;25461;-62
2023/06/26 00:08:59;;;;;;;;;13.50;11.50;;;;;;;;119832;1192;25577;-63
2023/06/26 00:11:30;;;;;;;;;13.00;10.50;;;;;;;;119774;1192;25073;-63
2023/06/26 00:14:02;;;;;;;;;11.00;11.00;;;;;;;;119873;1192;25522;-64
2023/06/26 00:16:30;;;;;;;;;12.00;11.00;;;;;;;;119717;1192;24816;-63
2023/06/26 00:18:59;;;;;;;;;12.25;11.25;;;;;;;;119709;1192;25129;-63
2023/06/26 00:21:28;;;;;;;;;9.00;9.00;;;;;;;;119510;1186;25410;-63
2023/06/26 00:23:56;;;;;;;;;12.00;11.33;;;;;;;;119875;1192;25695;-63
2023/06/26 00:26:24;;;;;;;;;11.00;11.00;;;;;;;;119888;1192;25214;-63
2023/06/26 00:28:52;;;;;;;;;8.50;7.50;;;;;;;;119729;1185;25610;-63
2023/06/26 00:31:21;;;;;;;;;9.00;8.00;;;;;;;;119856;1192;25508;-63
2023/06/26 00:33:49;;;;;;;;;9.50;9.50;;;;;;;;119867;1192;25485;-63
2023/06/26 00:36:17;;;;;;;;;11.00;10.33;;;;;;;;119503;1185;24748;-63
2023/06/26 00:38:46;;;;;;;;;5.00;5.00;;;;;;;;119883;1192;25425;-63
2023/06/26 00:41:14;;;;;;;;;9.75;9.75;;;;;;;;119860;1192;25410;-62
2023/06/26 00:43:42;;;;;;;;;9.67;8.67;;;;;;;;119875;1192;26160;-63
2023/06/26 00:46:13;;;;;;;;;9.33;9.33;;;;;;;;119857;1192;24904;-63
2023/06/26 00:48:43;;;;;;;;;12.00;10.00;;;;;;;;119507;1192;25056;-64
2023/06/26 00:51:13;;;;;;;;;12.67;12.33;;;;;;;;119493;1192;25604;-64
2023/06/26 00:53:42;;;;;;;;;8.00;8.00;;;;;;;;119437;1190;26031;-63
2023/06/26 00:56:11;;;;;;;;;9.00;8.00;;;;;;;;119448;1193;25886;-63
2023/06/26 00:58:40;;;;;;;;;16.50;12.50;;;;;;;;119455;1193;25049;-63
2023/06/26 01:01:08;;;;;;;;;10.50;10.50;;;;;;;;119682;1193;25233;-63
2023/06/26 01:03:39;;;;;;;;;10.00;10.00;;;;;;;;119670;1185;25056;-63
2023/06/26 01:06:11;;;;;;;;;13.00;10.00;;;;;;;;119691;1185;25298;-62
2023/06/26 01:08:41;;;;;;;;;9.67;7.67;;;;;;;;119678;1193;25212;-62
2023/06/26 01:11:10;;;;;;;;;14.00;12.00;;;;;;;;119499;1192;25051;-63
2023/06/26 01:13:40;;;;;;;;;12.00;11.00;;;;;;;;119474;1192;25403;-62
2023/06/26 01:16:09;;;;;;;;;10.00;8.00;;;;;;;;119474;1192;25403;-63
2023/06/26 01:18:42;;;;;;;;;12.67;9.00;;;;;;;;119876;1192;25460;-63
2023/06/26 01:21:12;;;;;;;;;12.33;10.33;;;;;;;;119532;1185;25524;-63
2023/06/26 01:24:27;;;;;;;;;13.00;9.67;;;;;;;;119879;1192;24988;-63
2023/06/26 01:26:56;;;;;;;;;8.00;8.00;;;;;;;;119543;1192;25017;-63
2023/06/26 01:29:25;;;;;;;;;9.00;9.00;;;;;;;;119462;1192;25541;-63
2023/06/26 01:31:53;;;;;;;;;12.00;10.33;;;;;;;;119496;1192;25695;-63
2023/06/26 01:34:22;;;;;;;;;11.00;9.00;;;;;;;;119510;1192;25078;-63
2023/06/26 01:36:50;;;;;;;;;8.50;8.50;;;;;;;;119494;1192;25248;-63
2023/06/26 01:39:19;;;;;;;;;8.00;7.00;;;;;;;;119887;1184;25364;-63
2023/06/26 01:41:47;;;;;;;;;9.50;9.25;;;;;;;;119471;1192;25045;-62
2023/06/26 01:44:45;;;;;;;;;17.50;11.00;;;;;;;;119864;1184;25621;-62
2023/06/26 01:47:17;;;;;;;;;11.00;10.33;;;;;;;;119492;1192;25350;-62
2023/06/26 01:49:54;;;;;;;;;12.00;11.33;;;;;;;;119532;1192;25518;-62
2023/06/26 01:52:31;;;;;;;;;9.00;9.00;;;;;;;;119862;1183;24721;-62
2023/06/26 01:55:09;;;;;;;;;8.33;7.33;;;;;;;;119506;1193;25012;-62
2023/06/26 01:57:38;;;;;;;;;10.00;9.00;;;;;;;;119506;1193;24976;-62
2023/06/26 02:00:10;;;;;;;;;8.00;8.00;;;;;;;;119486;1192;25207;-63
2023/06/26 02:02:38;;;;;;;;;12.50;10.50;;;;;;;;119517;1184;25356;-63
2023/06/26 02:05:07;;;;;;;;;9.50;8.25;;;;;;;;119481;1192;24898;-63
2023/06/26 02:07:35;;;;;;;;;11.00;9.00;;;;;;;;119857;1192;25333;-63
2023/06/26 02:10:04;;;;;;;;;9.50;9.00;;;;;;;;119879;1192;25576;-63
2023/06/26 02:12:32;;;;;;;;;11.00;10.50;;;;;;;;119857;1192;24868;-62
2023/06/26 02:15:02;;;;;;;;;11.50;9.00;;;;;;;;119809;1184;24958;-62
2023/06/26 02:17:30;;;;;;;;;14.00;10.00;;;;;;;;119469;1193;24970;-62
2023/06/26 02:19:59;;;;;;;;;11.00;10.00;;;;;;;;119485;1185;24943;-62
2023/06/26 02:22:28;;;;;;;;;12.00;10.00;;;;;;;;119717;1192;24974;-62
2023/06/26 02:24:56;;;;;;;;;10.50;9.00;;;;;;;;119698;1193;24806;-63
2023/06/26 02:27:25;;;;;;;;;9.50;9.50;;;;;;;;119752;1192;25357;-62
2023/06/26 02:29:53;;;;;;;;;10.00;8.50;;;;;;;;119780;1192;25923;-62
2023/06/26 02:32:21;;;;;;;;;7.00;7.00;;;;;;;;119495;1192;25678;-62
2023/06/26 02:34:53;;;;;;;;;10.33;9.00;;;;;;;;119842;1192;25543;-63
2023/06/26 02:37:22;;;;;;;;;9.00;9.00;;;;;;;;119870;1184;25637;-62
2023/06/26 02:39:50;;;;;;;;;9.50;9.50;;;;;;;;119792;1192;24805;-62
2023/06/26 02:42:18;;;;;;;;;11.33;9.67;;;;;;;;119692;1193;24770;-63
2023/06/26 02:44:47;;;;;;;;;8.50;8.50;;;;;;;;119690;1192;25549;-63
2023/06/26 02:47:15;;;;;;;;;9.75;9.25;;;;;;;;119668;1193;25597;-62
2023/06/26 02:49:44;;;;;;;;;9.50;9.50;;;;;;;;119472;1186;24902;-63
2023/06/26 02:52:12;;;;;;;;;11.50;11.00;;;;;;;;119880;1184;25207;-63
2023/06/26 02:54:40;;;;;;;;;7.50;7.50;;;;;;;;119864;1192;25042;-62
2023/06/26 02:57:09;;;;;;;;;13.00;11.00;;;;;;;;119749;1192;25495;-62
2023/06/26 02:59:37;;;;;;;;;7.67;6.67;;;;;;;;119689;1193;24910;-62
2023/06/26 03:02:05;;;;;;;;;10.50;10.50;;;;;;;;119727;1192;24768;-63
2023/06/26 03:04:36;;;;;;;;;9.50;9.50;;;;;;;;119868;1192;25022;-62
2023/06/26 03:07:04;;;;;;;;;10.00;10.00;;;;;;;;119750;1192;25124;-63
2023/06/26 03:09:33;;;;;;;;;10.75;9.75;;;;;;;;119686;1193;25597;-64
2023/06/26 03:12:01;;;;;;;;;9.50;8.50;;;;;;;;119697;1192;24868;-63
2023/06/26 03:14:31;;;;;;;;;12.00;10.50;;;;;;;;119742;1189;25314;-64
2023/06/26 03:17:03;;;;;;;;;9.75;9.50;;;;;;;;119755;1184;25426;-63
2023/06/26 03:19:31;;;;;;;;;11.00;9.33;;;;;;;;119723;1192;25177;-63
2023/06/26 03:22:00;;;;;;;;;15.00;12.00;;;;;;;;119706;1185;25005;-63
2023/06/26 03:24:28;;;;;;;;;11.67;10.00;;;;;;;;119769;1192;25290;-63
2023/06/26 03:26:56;;;;;;;;;12.67;10.67;;;;;;;;119823;1192;24855;-63
2023/06/26 03:29:25;;;;;;;;;11.00;9.00;;;;;;;;119712;1186;24951;-63
2023/06/26 03:31:53;;;;;;;;;10.00;10.00;;;;;;;;119769;1192;26243;-64
2023/06/26 03:34:21;;;;;;;;;11.00;9.00;;;;;;;;119457;1189;25250;-63
2023/06/26 03:36:50;;;;;;;;;11.50;11.50;;;;;;;;119799;1184;24866;-64
2023/06/26 03:39:18;;;;;;;;;10.25;10.25;;;;;;;;119715;1192;24716;-64
2023/06/26 03:41:46;;;;;;;;;10.00;10.00;;;;;;;;119865;1192;25342;-64
2023/06/26 03:44:15;;;;;;;;;16.00;12.00;;;;;;;;119869;1183;24944;-64
2023/06/26 03:46:43;;;;;;;;;10.33;10.00;;;;;;;;119853;1192;25536;-63
2023/06/26 03:49:12;;;;;;;;;6.00;6.00;;;;;;;;119887;1192;25335;-63
2023/06/26 03:51:40;;;;;;;;;12.00;9.00;;;;;;;;119874;1191;25639;-64
2023/06/26 03:54:09;;;;;;;;;10.50;6.00;;;;;;;;119853;1192;25221;-63
2023/06/26 03:56:37;;;;;;;;;11.00;9.00;;;;;;;;119881;1192;25241;-64
2023/06/26 03:59:05;;;;;;;;;9.00;8.00;;;;;;;;119500;1192;24946;-63
2023/06/26 04:01:35;;;;;;;;;11.00;10.50;;;;;;;;119844;1192;25226;-63
2023/06/26 04:04:04;;;;;;;;;9.00;9.00;;;;;;;;119885;1184;25056;-64
2023/06/26 04:06:33;;;;;;;;;10.00;10.00;;;;;;;;119852;1191;24818;-63
2023/06/26 04:09:02;;;;;;;;;9.50;8.00;;;;;;;;119469;1185;25276;-64
2023/06/26 04:11:31;;;;;;;;;10.25;10.25;;;;;;;;119691;1193;25234;-63
2023/06/26 04:13:59;;;;;;;;;14.50;11.00;;;;;;;;119448;1186;25569;-63
2023/06/26 04:16:28;;;;;;;;;10.50;9.50;;;;;;;;119820;1192;24759;-64
2023/06/26 04:18:57;;;;;;;;;11.00;10.00;;;;;;;;119835;1192;25288;-64
2023/06/26 04:21:25;;;;;;;;;8.00;8.00;;;;;;;;119805;1184;25003;-63
2023/06/26 04:23:54;;;;;;;;;9.00;8.25;;;;;;;;119460;1190;25975;-63
2023/06/26 04:26:22;;;;;;;;;8.00;8.00;;;;;;;;119705;1192;24974;-63
2023/06/26 04:28:50;;;;;;;;;11.00;11.00;;;;;;;;119446;1192;25614;-63
2023/06/26 04:31:19;;;;;;;;;9.50;9.50;;;;;;;;119789;1192;25668;-64
2023/06/26 04:33:50;;;;;;;;;9.50;9.50;;;;;;;;119729;1192;25411;-64
2023/06/26 04:36:19;;;;;;;;;14.00;10.00;;;;;;;;119464;1193;25225;-64
2023/06/26 04:38:50;;;;;;;;;13.67;10.67;;;;;;;;119713;1183;24801;-63
2023/06/26 04:41:18;;;;;;;;;11.00;8.00;;;;;;;;119504;1192;24969;-63
2023/06/26 04:43:47;;;;;;;;;10.33;9.33;;;;;;;;119763;1192;25287;-63
2023/06/26 04:46:15;;;;;;;;;15.00;11.00;;;;;;;;119807;1190;24940;-63
2023/06/26 04:48:46;;;;;;;;;13.00;10.00;;;;;;;;119475;1192;25330;-64
2023/06/26 04:51:15;;;;;;;;;9.00;9.00;;;;;;;;119485;1192;24821;-65
2023/06/26 04:53:43;;;;;;;;;11.00;10.00;;;;;;;;119499;1192;25523;-64
2023/06/26 04:56:11;;;;;;;;;9.67;9.67;;;;;;;;119782;1183;24844;-65
2023/06/26 04:58:39;;;;;;;;;9.50;9.50;;;;;;;;119684;1193;25159;-65
2023/06/26 05:01:08;;;;;;;;;10.00;9.00;;;;;;;;119808;1192;25244;-65
2023/06/26 05:03:37;;;;;;;;;11.00;8.50;;;;;;;;119708;1185;25204;-63
2023/06/26 05:06:05;;;;;;;;;10.50;9.75;;;;;;;;119814;1184;25605;-62
2023/06/26 05:08:37;;;;;;;;;11.33;10.00;;;;;;;;119863;1192;24947;-69
2023/06/26 05:11:05;;;;;;;;;10.50;9.75;;;;;;;;119850;1192;25697;-71
2023/06/26 05:13:33;;;;;;;;;11.67;10.67;;;;;;;;119859;1192;25583;-72
2023/06/26 05:16:02;;;;;;;;;13.50;11.00;;;;;;;;119862;1192;25731;-69
2023/06/26 05:18:30;;;;;;;;;5.00;3.50;;;;;;;;119845;1192;25488;-72
2023/06/26 05:20:59;;;;;;;;;16.00;10.00;;;;;;;;119869;1192;24847;-73
2023/06/26 05:23:31;;;;;;;;;10.33;9.67;;;;;;;;119864;1192;25523;-81
2023/06/26 05:26:01;;;;;;;;;10.33;9.00;;;;;;;;119892;1184;25082;-79
2023/06/26 05:28:33;;;;;;;;;11.00;8.25;;;;;;;;119502;1192;25520;-75
2023/06/26 05:31:02;;;;;;;;;11.33;10.67;;;;;;;;119888;1192;24901;-80
2023/06/26 05:33:31;;;;;;;;;12.00;12.00;;;;;;;;119678;1192;25018;-82
2023/06/26 05:36:00;;;;;;;;;10.00;9.33;;;;;;;;119459;1193;25006;-84
2023/06/26 05:38:29;;;;;;;;;10.00;10.00;;;;;;;;119469;1193;25312;-81
2023/06/26 05:40:57;;;;;;;;;13.33;12.00;;;;;;;;119738;1185;25655;-87
2023/06/26 05:43:26;;;;;;;;;11.00;10.00;;;;;;;;119717;1193;25101;-87
2023/06/26 05:46:00;;;;;;;;;11.25;10.00;;;;;;;;119689;1193;25516;-86
2023/06/26 05:48:28;;;;;;;;;9.00;7.50;;;;;;;;119484;1185;25157;-78
2023/06/26 05:50:57;;;;;;;;;9.67;8.67;;;;;;;;119436;1193;24792;-83
2023/06/26 05:53:25;;;;;;;;;8.50;8.00;;;;;;;;119689;1193;25817;-82
2023/06/26 05:55:54;;;;;;;;;9.67;7.00;;;;;;;;119689;1185;25501;-84
2023/06/26 05:58:24;;;;;;;;;9.50;8.50;;;;;;;;119679;1193;24967;-81
2023/06/26 06:00:52;;;;;;;;;7.50;7.50;;;;;;;;119454;1193;24910;-82
2023/06/26 06:03:21;;;;;;;;;9.00;9.00;;;;;;;;119467;1192;25112;-81
2023/06/26 06:05:49;;;;;;;;;10.25;7.50;;;;;;;;119506;1184;25387;-82
2023/06/26 06:08:18;;;;;;;;;11.00;11.00;;;;;;;;119482;1192;25647;-81
2023/06/26 06:10:46;;;;;;;;;10.33;10.33;;;;;;;;119878;1192;24961;-76
2023/06/26 06:13:15;;;;;;;;;9.00;9.00;;;;;;;;119489;1192;25798;-76
2023/06/26 06:15:43;;;;;;;;;10.50;9.75;;;;;;;;119892;1183;24729;-76
2023/06/26 06:18:11;;;;;;;;;9.67;9.33;;;;;;;;119484;1185;24929;-76
2023/06/26 06:20:40;;;;;;;;;9.00;7.00;;;;;;;;119879;1192;25658;-74
2023/06/26 06:23:09;;;;;;;;;9.00;8.67;;;;;;;;119715;1192;25886;-76
2023/06/26 06:25:37;;;;;;;;;14.33;11.33;;;;;;;;119878;1192;24932;-75
2023/06/26 06:28:06;;;;;;;;;8.00;6.00;;;;;;;;119879;1183;25274;-84
2023/06/26 06:30:34;;;;;;;;;8.67;8.67;;;;;;;;119489;1186;25911;-83
2023/06/26 06:33:16;;;;;;;;;12.00;8.00;;;;;;;;119874;1192;24955;-83
2023/06/26 06:35:44;;;;;;;;;9.00;9.00;;;;;;;;119890;1184;25207;-83
2023/06/26 06:38:13;;;;;;;;;9.00;9.00;;;;;;;;119873;1192;25480;-73
2023/06/26 06:40:41;;;;;;;;;9.00;9.00;;;;;;;;119477;1192;24709;-73
2023/06/26 06:43:09;;;;;;;;;14.00;9.00;;;;;;;;119873;1192;25825;-73
2023/06/26 06:45:38;;;;;;;;;10.50;8.00;;;;;;;;119881;1192;25173;-74
2023/06/26 06:48:06;;;;;;;;;8.00;6.00;;;;;;;;119868;1192;25216;-75
2023/06/26 06:50:34;;;;;;;;;9.75;9.75;;;;;;;;119726;1184;25034;-79
2023/06/26 06:53:03;;;;;;;;;11.00;9.00;;;;;;;;119872;1192;25586;-76
2023/06/26 06:55:31;;;;;;;;;11.33;10.00;;;;;;;;119507;1185;25516;-76
2023/06/26 06:58:00;;;;;;;;;8.00;7.00;;;;;;;;119481;1192;25370;-74
2023/06/26 07:00:31;;;;;;;;;10.00;8.00;;;;;;;;119866;1189;25197;-76
2023/06/26 07:03:00;;;;;;;;;9.00;7.00;;;;;;;;119881;1192;25584;-75
2023/06/26 07:05:28;;;;;;;;;8.67;8.00;;;;;;;;119486;1192;25344;-76
2023/06/26 07:07:57;;;;;;;;;10.00;8.00;;;;;;;;119707;1186;25508;-80
2023/06/26 07:10:29;;;;;;;;;9.25;8.50;;;;;;;;119863;1192;25207;-77
2023/06/26 07:12:58;;;;;;;;;13.00;12.00;;;;;;;;119488;1192;25789;-77
2023/06/26 07:15:26;;;;;;;;;10.33;7.33;;;;;;;;119869;1192;24908;-77
2023/06/26 07:17:55;;;;;;;;;10.00;9.67;;;;;;;;119875;1183;25061;-77
2023/06/26 07:20:23;;;;;;;;;10.33;8.33;;;;;;;;119719;1186;25244;-76
2023/06/26 07:22:52;;;;;;;;;8.00;8.00;;;;;;;;119836;1192;24811;-77
2023/06/26 07:25:21;;;;;;;;;10.00;10.00;;;;;;;;119693;1192;25539;-69
2023/06/26 07:27:49;;;;;;;;;7.50;6.00;;;;;;;;119870;1192;25349;-64
2023/06/26 07:30:18;;;;;;;;;11.00;9.00;;;;;;;;119502;1192;24822;-72
2023/06/26 07:32:47;;;;;;;;;5.25;5.25;;;;;;;;119866;1192;24815;-81
2023/06/26 07:35:16;;;;;;;;;9.00;9.00;;;;;;;;119507;1185;25077;-75
2023/06/26 07:37:44;;;;;;;;;8.33;8.33;;;;;;;;119482;1192;25025;-73
2023/06/26 07:40:13;;;;;;;;;7.33;7.33;;;;;;;;119738;1192;24868;-71
2023/06/26 07:42:41;;;;;;;;;8.50;8.50;;;;;;;;119852;1192;24955;-70
2023/06/26 07:45:12;;;;;;;;;9.33;8.00;;;;;;;;119861;1184;24898;-79
2023/06/26 07:47:40;;;;;;;;;7.67;5.00;;;;;;;;119864;1192;24973;-74
2023/06/26 07:50:09;;;;;;;;;9.50;9.00;;;;;;;;119859;1192;25170;-75
2023/06/26 07:52:37;;;;;;;;;7.00;7.00;;;;;;;;119890;1184;25024;-73
2023/06/26 07:55:06;;;;;;;;;8.00;8.00;;;;;;;;119853;1192;25035;-65
2023/06/26 07:57:34;;;;;;;;;8.00;4.50;;;;;;;;119836;1183;25384;-71
2023/06/26 08:00:06;;;;;;;;;10.00;8.50;;;;;;;;119512;1192;24892;-71
2023/06/26 08:02:35;;;;;;;;;8.00;8.00;;;;;;;;119699;1192;25519;-70
2023/06/26 08:05:03;;;;;;;;;9.00;5.67;;;;;;;;119860;1184;25916;-65
2023/06/26 08:07:32;;;;;;;;;7.00;7.00;;;;;;;;119870;1192;24863;-65
2023/06/26 08:10:00;;;;;;;;;8.50;8.00;;;;;;;;119884;1184;24865;-67
2023/06/26 08:12:29;;;;;;;;;7.33;7.33;;;;;;;;119885;1189;25435;-73
2023/06/26 08:14:57;;;;;;;;;8.00;8.00;;;;;;;;119879;1183;25113;-64
2023/06/26 08:17:25;;;;;;;;;11.33;10.00;;;;;;;;119873;1184;25384;-63
2023/06/26 08:19:57;;;;;;;;;10.25;8.75;;;;;;;;119881;1179;25064;-63
2023/06/26 08:22:25;;;;;;;;;7.50;7.50;;;;;;;;119724;1192;24887;-64
2023/06/26 08:24:54;;;;;;;;;8.67;8.33;;;;;;;;119463;1192;25265;-63
2023/06/26 08:27:22;;;;;;;;;10.25;8.25;;;;;;;;119871;1183;25106;-63
2023/06/26 08:29:50;;;;;;;;;7.67;7.33;;;;;;;;119679;1185;25483;-73
2023/06/26 08:32:19;;;;;;;;;7.50;7.50;;;;;;;;119874;1192;25551;-66
2023/06/26 08:34:47;;;;;;;;;9.00;9.00;;;;;;;;119494;1185;25074;-71
2023/06/26 08:37:16;;;;;;;;;8.33;8.33;;;;;;;;119861;1192;25666;-71
2023/06/26 08:39:44;;;;;;;;;11.00;9.00;;;;;;;;119869;1192;25717;-66
2023/06/26 08:42:13;;;;;;;;;9.67;8.33;;;;;;;;119870;1192;24766;-70
2023/06/26 08:44:41;;;;;;;;;10.00;9.00;;;;;;;;119481;1192;25402;-70
2023/06/26 08:47:28;;;;;;;;;8.25;8.25;;;;;;;;119865;1189;24827;-66
2023/06/26 08:50:04;;;;;;;;;8.50;8.50;;;;;;;;119511;1192;25390;-66
2023/06/26 08:53:08;;;;;;;;;8.67;7.33;;;;;;;;119494;1192;25401;-64
2023/06/26 08:55:38;;;;;;;;;9.50;8.50;;;;;;;;119348;1195;25432;-65
2023/06/26 08:58:07;;;;;;;;;5.00;5.00;;;;;;;;119423;1184;25018;-64
2023/06/26 09:00:35;;;;;;;;;8.00;7.00;;;;;;;;119871;1192;25474;-66
2023/06/26 09:03:05;;;;;;;;;9.33;8.00;;;;;;;;119493;1192;25186;-65
2023/06/26 09:05:34;;;;;;;;;4.00;4.00;;;;;;;;119488;1192;25630;-65
2023/06/26 09:08:03;;;;;;;;;7.25;6.25;;;;;;;;119871;1183;25365;-67
2023/06/26 09:10:32;;;;;;;;;9.33;8.00;;;;;;;;119483;1183;25274;-66
2023/06/26 09:13:03;;;;;;;;;8.50;7.50;;;;;;;;119840;1192;26262;-65
2023/06/26 09:15:45;;;;;;;;;10.25;7.50;;;;;;;;119548;1192;25468;-67
2023/06/26 09:18:17;;;;;;;;;7.50;7.50;;;;;;;;119515;1185;25590;-66
2023/06/26 09:20:46;;;;;;;;;7.67;6.00;;;;;;;;119858;1188;25708;-67
2023/06/26 09:23:14;;;;;;;;;6.67;5.67;;;;;;;;119829;1183;25630;-68
2023/06/26 09:25:44;;;;;;;;;6.00;6.00;;;;;;;;119476;1192;25434;-67
2023/06/26 09:28:13;;;;;;;;;8.33;6.00;;;;;;;;119550;1180;25243;-67
2023/06/26 09:30:41;;;;;;;;;8.50;6.00;;;;;;;;119889;1192;25517;-68
2023/06/26 09:33:17;;;;;;;;;5.33;5.33;;;;;;;;119870;1189;25394;-67
2023/06/26 09:35:46;;;;;;;;;7.00;7.00;;;;;;;;119511;1188;25070;-62
2023/06/26 09:38:15;;;;;;;;;6.00;6.00;;;;;;;;119590;1188;25159;-62
2023/06/26 09:40:43;;;;;;;;;6.33;6.33;;;;;;;;119882;1188;24785;-61
2023/06/26 09:43:13;;;;;;;;;7.33;7.33;;;;;;;;119898;1183;26273;-63
2023/06/26 09:45:41;;;;;;;;;9.67;6.00;;;;;;;;119643;1189;25310;-61
2023/06/26 09:48:11;;;;;;;;;9.00;8.00;;;;;;;;119876;1179;25483;-63
2023/06/26 09:50:42;;;;;;;;;9.00;8.00;;;;;;;;119858;1183;24945;-62
2023/06/26 09:53:30;;;;;;;;;7.00;6.00;;;;;;;;119853;1192;24904;-65
2023/06/26 09:55:58;;;;;;;;;7.00;5.75;;;;;;;;119695;1185;25702;-68
2023/06/26 09:58:27;;;;;;;;;6.50;6.00;;;;;;;;119737;1192;25564;-65
2023/06/26 10:00:55;;;;;;;;;7.00;6.00;;;;;;;;119486;1192;25612;-64
2023/06/26 10:03:24;;;;;;;;;6.33;6.00;;;;;;;;119796;1184;25511;-66
2023/06/26 10:05:53;;;;;;;;;8.67;7.00;;;;;;;;119775;1192;25191;-64
2023/06/26 10:08:21;;;;;;;;;8.50;5.75;;;;;;;;119464;1192;25829;-62
2023/06/26 10:10:50;;;;;;;;;9.33;9.00;;;;;;;;119835;1183;25143;-62
2023/06/26 10:13:22;;;;;;;;;6.00;5.00;;;;;;;;119448;1193;25218;-71
2023/06/26 10:15:51;;;;;;;;;6.00;6.00;;;;;;;;119530;1192;25073;-65
2023/06/26 10:18:24;;;;;;;;;7.00;7.00;;;;;;;;119612;1186;24930;-67
2023/06/26 10:20:55;;;;;;;;;7.67;6.00;;;;;;;;119646;1188;25329;-66
2023/06/26 10:23:25;;;;;;;;;8.00;6.50;;;;;;;;119563;1189;25539;-66
2023/06/26 10:25:55;;;;;;;;;8.00;7.00;;;;;;;;119616;1183;25113;-68
2023/06/26 10:28:26;;;;;;;;;6.25;6.25;;;;;;;;119589;1180;25182;-67
2023/06/26 10:30:55;;;;;;;;;7.75;6.75;;;;;;;;119549;1192;25508;-71
2023/06/26 10:33:24;;;;;;;;;4.67;4.67;;;;;;;;119899;1183;25538;-68
2023/06/26 10:35:52;;;;;;;;;6.25;6.00;;;;;;;;119528;1189;25556;-66
2023/06/26 10:38:21;;;;;;;;;8.00;8.00;;;;;;;;119887;1188;25201;-70
2023/06/26 10:40:49;;;;;;;;;6.00;5.00;;;;;;;;119847;1192;24912;-64
2023/06/26 10:43:22;;;;;;;;;7.50;7.50;;;;;;;;119882;1183;25896;-63
2023/06/26 10:45:55;;;;;;;;;5.00;5.00;;;;;;;;119907;1188;25304;-76
2023/06/26 10:48:28;;;;;;;;;5.33;5.00;;;;;;;;119880;1192;25984;-68
2023/06/26 10:50:57;;;;;;;;;7.25;5.00;;;;;;;;119912;1183;25803;-70
2023/06/26 10:53:26;;;;;;;;;5.00;5.00;;;;;;;;119904;1189;25333;-69
2023/06/26 10:55:58;;;;;;;;;5.00;5.00;;;;;;;;119857;1188;25383;-68
2023/06/26 10:58:40;;;;;;;;;7.75;5.75;;;;;;;;119647;1186;25604;-68
2023/06/26 11:01:15;;;;;;;;;8.25;6.75;;;;;;;;119880;1188;24933;-70
2023/06/26 11:04:06;;;;;;;;;8.25;6.00;;;;;;;;119892;1192;24713;-65
2023/06/26 11:06:38;;;;;;;;;7.00;5.00;;;;;;;;119693;1192;24953;-65
2023/06/26 11:09:07;;;;;;;;;8.33;7.67;;;;;;;;119564;1183;25056;-65
2023/06/26 11:11:51;;;;;;;;;8.00;6.00;;;;;;;;119903;1183;25594;-70
2023/06/26 11:14:21;;;;;;;;;5.50;5.00;;;;;;;;119842;1188;25616;-68
2023/06/26 11:16:49;;;;;;;;;5.50;5.50;;;;;;;;119883;1179;25403;-66
2023/06/26 11:19:19;;;;;;;;;7.33;7.33;;;;;;;;119858;1183;25326;-68
2023/06/26 11:21:47;;;;;;;;;9.00;6.00;;;;;;;;119879;1192;25287;-70
2023/06/26 11:24:15;;;;;;;;;5.67;5.67;;;;;;;;119853;1188;25030;-70
2023/06/26 11:26:45;;;;;;;;;8.50;6.50;;;;;;;;119880;1183;25431;-66
2023/06/26 11:29:13;;;;;;;;;6.00;6.00;;;;;;;;119502;1185;25361;-67
2023/06/26 11:31:42;;;;;;;;;8.00;5.67;;;;;;;;119876;1189;25480;-67
2023/06/26 11:34:12;;;;;;;;;8.67;7.67;;;;;;;;119868;1192;26114;-67
2023/06/26 11:36:46;;;;;;;;;5.50;5.50;;;;;;;;119466;1185;24963;-66
2023/06/26 11:39:14;;;;;;;;;6.33;5.00;;;;;;;;119844;1192;25610;-66
2023/06/26 11:41:45;;;;;;;;;6.33;6.33;;;;;;;;119855;1192;25377;-67
2023/06/26 11:44:20;;;;;;;;;5.00;4.00;;;;;;;;119477;1192;24860;-65
2023/06/26 11:46:52;;;;;;;;;10.50;6.00;;;;;;;;119516;1183;24961;-69
2023/06/26 11:49:22;;;;;;;;;8.67;6.33;;;;;;;;119485;1185;25402;-65
2023/06/26 11:51:52;;;;;;;;;5.50;5.50;;;;;;;;119879;1192;25513;-63
2023/06/26 11:54:27;;;;;;;;;5.00;5.00;;;;;;;;119481;1192;25055;-63
2023/06/26 11:56:57;;;;;;;;;5.00;5.00;;;;;;;;119498;1192;25675;-64
2023/06/26 11:59:37;;;;;;;;;6.00;4.67;;;;;;;;119486;1186;25609;-64
2023/06/26 12:02:15;;;;;;;;;6.00;5.00;;;;;;;;119877;1192;25318;-64
2023/06/26 12:04:44;;;;;;;;;5.67;5.00;;;;;;;;119750;1192;24869;-62
2023/06/26 12:07:13;;;;;;;;;7.00;6.00;;;;;;;;119496;1192;25017;-66
2023/06/26 12:09:46;;;;;;;;;6.00;5.50;;;;;;;;119861;1192;24838;-64
2023/06/26 12:12:16;;;;;;;;;7.25;6.25;;;;;;;;119887;1192;25001;-65
2023/06/26 12:14:45;;;;;;;;;6.00;5.00;;;;;;;;119497;1185;26044;-63
2023/06/26 12:17:14;;;;;;;;;7.50;6.50;;;;;;;;119504;1192;25235;-65
2023/06/26 12:19:49;;;;;;;;;4.00;4.00;;;;;;;;119499;1192;25618;-64
2023/06/26 12:22:19;;;;;;;;;6.00;6.00;;;;;;;;119505;1192;25306;-66
2023/06/26 12:24:48;;;;;;;;;7.00;7.00;;;;;;;;119491;1192;25275;-65
2023/06/26 12:27:18;;;;;;;;;6.00;6.00;;;;;;;;119728;1185;25472;-68
2023/06/26 12:29:52;;;;;;;;;7.25;6.00;;;;;;;;119864;1183;25371;-64
2023/06/26 12:32:24;;;;;;;;;5.00;5.00;;;;;;;;119866;1183;24868;-63
2023/06/26 12:34:56;;;;;;;;;9.67;7.67;;;;;;;;119474;1192;24700;-65
2023/06/26 12:37:24;;;;;;;;;3.00;3.00;;;;;;;;119485;1192;24696;-68
2023/06/26 12:39:57;;;;;;;;;6.25;6.25;;;;;;;;119848;1192;24715;-66
2023/06/26 12:42:27;;;;;;;;;9.00;7.00;;;;;;;;119712;1192;25028;-66
2023/06/26 12:44:56;;;;;;;;;3.50;3.50;;;;;;;;119491;1185;24968;-67
2023/06/26 12:47:30;;;;;;;;;7.00;6.00;;;;;;;;119461;1192;25560;-67
2023/06/26 12:50:05;;;;;;;;;7.00;7.00;;;;;;;;119711;1184;25359;-66
2023/06/26 12:52:33;;;;;;;;;5.50;5.50;;;;;;;;119508;1185;24834;-64
2023/06/26 12:55:02;;;;;;;;;8.00;6.00;;;;;;;;119483;1192;25429;-64
2023/06/26 12:57:30;;;;;;;;;6.00;6.00;;;;;;;;119498;1186;24880;-64
2023/06/26 13:00:00;;;;;;;;;8.25;8.00;;;;;;;;119888;1188;25508;-65
2023/06/26 13:02:30;;;;;;;;;8.00;6.00;;;;;;;;119870;1192;25349;-66
2023/06/26 13:04:58;;;;;;;;;6.00;6.00;;;;;;;;119872;1183;24889;-68
2023/06/26 13:07:27;;;;;;;;;4.50;4.50;;;;;;;;119864;1192;25330;-68
2023/06/26 13:09:55;;;;;;;;;7.50;6.50;;;;;;;;119903;1192;25631;-67
2023/06/26 13:12:24;;;;;;;;;5.67;5.67;;;;;;;;119851;1192;24904;-67
2023/06/26 13:14:52;;;;;;;;;8.00;6.50;;;;;;;;119876;1183;25220;-66
2023/06/26 13:17:20;;;;;;;;;6.67;6.00;;;;;;;;119868;1192;24856;-66
2023/06/26 13:19:49;;;;;;;;;6.00;6.00;;;;;;;;119869;1192;25597;-67
2023/06/26 13:22:17;;;;;;;;;5.67;5.00;;;;;;;;119861;1184;25094;-65
2023/06/26 13:24:46;;;;;;;;;5.00;5.00;;;;;;;;119869;1192;25308;-66
2023/06/26 13:27:15;;;;;;;;;6.67;6.67;;;;;;;;119865;1192;25115;-67
2023/06/26 13:29:44;;;;;;;;;8.00;6.00;;;;;;;;119866;1183;24934;-67
2023/06/26 13:32:12;;;;;;;;;7.25;7.25;;;;;;;;119888;1183;25231;-64
2023/06/26 13:34:41;;;;;;;;;6.00;4.00;;;;;;;;119874;1192;25059;-65
2023/06/26 13:37:09;;;;;;;;;7.33;6.67;;;;;;;;119875;1192;25395;-64
2023/06/26 13:39:38;;;;;;;;;7.00;6.00;;;;;;;;119860;1192;25193;-64
2023/06/26 13:42:06;;;;;;;;;5.00;5.00;;;;;;;;119852;1184;25072;-63
2023/06/26 13:44:35;;;;;;;;;5.00;4.33;;;;;;;;119862;1192;25589;-64
2023/06/26 13:47:19;;;;;;;;;7.33;7.00;;;;;;;;119869;1192;25402;-63
2023/06/26 13:49:47;;;;;;;;;7.25;7.25;;;;;;;;119884;1192;24686;-68
2023/06/26 13:52:16;;;;;;;;;8.00;7.00;;;;;;;;119856;1183;25174;-70
2023/06/26 13:54:44;;;;;;;;;6.50;6.50;;;;;;;;119852;1192;25223;-71
2023/06/26 13:57:12;;;;;;;;;9.00;7.50;;;;;;;;119877;1183;26228;-68
2023/06/26 13:59:41;;;;;;;;;10.00;10.00;;;;;;;;119866;1192;25460;-66
2023/06/26 14:02:09;;;;;;;;;10.00;10.00;;;;;;;;119872;1192;25474;-66
2023/06/26 14:04:37;;;;;;;;;10.50;9.00;;;;;;;;119473;1180;25900;-66
2023/06/26 14:07:07;;;;;;;;;11.75;8.50;;;;;;;;119869;1192;25389;-65
2023/06/26 14:09:35;;;;;;;;;11.00;10.00;;;;;;;;119728;1185;24859;-65
2023/06/26 14:12:04;;;;;;;;;10.00;9.50;;;;;;;;119881;1192;25620;-66
2023/06/26 14:14:33;;;;;;;;;10.67;9.67;;;;;;;;119488;1192;24942;-67
2023/06/26 14:17:01;;;;;;;;;9.33;9.00;;;;;;;;119523;1185;25657;-66
2023/06/26 14:19:30;;;;;;;;;8.00;7.00;;;;;;;;119880;1192;25304;-65
2023/06/26 14:21:59;;;;;;;;;8.33;7.00;;;;;;;;119861;1192;25239;-66
2023/06/26 14:24:27;;;;;;;;;8.50;7.75;;;;;;;;119894;1192;25334;-67
2023/06/26 14:26:56;;;;;;;;;10.50;9.75;;;;;;;;119879;1192;25616;-66
2023/06/26 14:29:24;;;;;;;;;8.00;7.50;;;;;;;;119895;1192;25379;-66
2023/06/26 14:31:52;;;;;;;;;10.00;9.00;;;;;;;;119887;1184;25408;-66
2023/06/26 14:34:23;;;;;;;;;7.00;6.00;;;;;;;;119460;1189;25076;-63
2023/06/26 14:36:52;;;;;;;;;8.00;8.00;;;;;;;;119864;1192;25683;-66
2023/06/26 14:39:20;;;;;;;;;8.75;8.00;;;;;;;;119897;1183;25055;-67